PWSweather.com
Personal Weather Stations
Station Observations
EA5BZ
Nuevo Altabix, ElcheES

Nuevo AltabixElcheES

Lat: 38.276, Lon: -0.671

Elevation: 0

Station Type: Davis Vantage Pro 2

http://meteoelche.es

High Low Average
Temperature 64.4°F18.0°C 48.6°F9.2°C 54.5°F12.5°C
Dew Point 49.9°F9.9°C 37.4°F3.0°C 43.7°F6.5°C
Winds 10.3 mph 16.6 kmh 1.3 mph 2.1 kmh 6.0 mph SW9.7 kmh SW
Wind Gusts 16.8 mph27.0 kmh 2.0 mph3.2 kmh 8.0 mph12.9 kmh
Humidity 83% 46% 68%
Pressure 30.43 in1030.5 mb 30.32 in1026.8 mb -
Precipitation 0.00 in0.0 mm - -
Hour Temp Dew Point Humidity Winds Wind Gusts Pressure Precip Precip Rate Daily Precip Total
12:00 AM 53.2°F11.8°C 47.4°F8.6°C 81% 5.4 mph NW8.7 kmh NW 6.9 mph11.1 kmh 30.34 in1027.4 mb 0.00 in0.0 mm 0.00 in0.0 mm 0.00 in0.0 mm
12:05 AM 53.2°F11.8°C 47.3°F8.5°C 80% 5.2 mph NW8.4 kmh NW 5.4 mph8.7 kmh 30.34 in1027.4 mb 0.00 in0.0 mm 0.00 in0.0 mm 0.00 in0.0 mm
12:10 AM 53.0°F11.7°C 47.2°F8.4°C 80% 4.7 mph NW7.6 kmh NW 6.5 mph10.5 kmh 30.34 in1027.4 mb 0.00 in0.0 mm 0.00 in0.0 mm 0.00 in0.0 mm
12:15 AM 52.9°F11.6°C 47.2°F8.4°C 81% 4.8 mph NW7.7 kmh NW 6.5 mph10.5 kmh 30.34 in1027.4 mb 0.00 in0.0 mm 0.00 in0.0 mm 0.00 in0.0 mm
12:20 AM 52.8°F11.6°C 47.3°F8.5°C 81% 5.1 mph WNW8.2 kmh WNW 7.6 mph12.2 kmh 30.34 in1027.4 mb 0.00 in0.0 mm 0.00 in0.0 mm 0.00 in0.0 mm
12:25 AM 52.5°F11.4°C 47.0°F8.3°C 81% 5.2 mph WNW8.4 kmh WNW 6.5 mph10.5 kmh 30.34 in1027.4 mb 0.00 in0.0 mm 0.00 in0.0 mm 0.00 in0.0 mm
12:30 AM 52.4°F11.3°C 46.7°F8.2°C 81% 5.4 mph WNW8.7 kmh WNW 5.4 mph8.7 kmh 30.34 in1027.4 mb 0.00 in0.0 mm 0.00 in0.0 mm 0.00 in0.0 mm
12:35 AM 52.3°F11.3°C 46.8°F8.2°C 81% 5.1 mph WNW8.2 kmh WNW 5.4 mph8.7 kmh 30.34 in1027.4 mb 0.00 in0.0 mm 0.00 in0.0 mm 0.00 in0.0 mm
12:40 AM 52.3°F11.3°C 47.2°F8.4°C 83% 4.3 mph WNW6.9 kmh WNW 5.4 mph8.7 kmh 30.34 in1027.4 mb 0.00 in0.0 mm 0.00 in0.0 mm 0.00 in0.0 mm
12:45 AM 52.3°F11.3°C 47.0°F8.3°C 82% 4.3 mph WNW6.9 kmh WNW 5.8 mph9.3 kmh 30.34 in1027.4 mb 0.00 in0.0 mm 0.00 in0.0 mm 0.00 in0.0 mm
12:50 AM 52.1°F11.2°C 46.5°F8.1°C 81% 4.3 mph NW6.9 kmh NW 8.1 mph13.0 kmh 30.34 in1027.4 mb 0.00 in0.0 mm 0.00 in0.0 mm 0.00 in0.0 mm
12:55 AM 51.7°F10.9°C 45.8°F7.7°C 80% 4.8 mph WNW7.7 kmh WNW 8.5 mph13.7 kmh 30.34 in1027.4 mb 0.00 in0.0 mm 0.00 in0.0 mm 0.00 in0.0 mm
01:00 AM 51.2°F10.7°C 45.0°F7.2°C 79% 6.5 mph W10.5 kmh W 8.5 mph13.7 kmh 30.34 in1027.4 mb 0.00 in0.0 mm 0.00 in0.0 mm 0.00 in0.0 mm
01:05 AM 50.9°F10.5°C 44.4°F6.9°C 79% 6.6 mph W10.6 kmh W 9.2 mph14.8 kmh 30.34 in1027.4 mb 0.00 in0.0 mm 0.00 in0.0 mm 0.00 in0.0 mm
01:10 AM 50.6°F10.3°C 44.2°F6.8°C 79% 6.9 mph W11.1 kmh W 8.5 mph13.7 kmh 30.34 in1027.4 mb 0.00 in0.0 mm 0.00 in0.0 mm 0.00 in0.0 mm
01:15 AM 50.5°F10.3°C 44.3°F6.8°C 79% 6.8 mph W10.9 kmh W 7.6 mph12.2 kmh 30.34 in1027.4 mb 0.00 in0.0 mm 0.00 in0.0 mm 0.00 in0.0 mm
01:20 AM 50.5°F10.3°C 44.2°F6.8°C 79% 6.5 mph W10.5 kmh W 7.4 mph11.9 kmh 30.34 in1027.4 mb 0.00 in0.0 mm 0.00 in0.0 mm 0.00 in0.0 mm
01:25 AM 50.4°F10.2°C 44.2°F6.8°C 79% 6.2 mph W10.0 kmh W 7.4 mph11.9 kmh 30.34 in1027.4 mb 0.00 in0.0 mm 0.00 in0.0 mm 0.00 in0.0 mm
01:30 AM 50.4°F10.2°C 44.3°F6.8°C 80% 5.4 mph WSW8.7 kmh WSW 7.6 mph12.2 kmh 30.34 in1027.4 mb 0.00 in0.0 mm 0.00 in0.0 mm 0.00 in0.0 mm
01:35 AM 50.3°F10.2°C 44.3°F6.8°C 80% 5.6 mph WSW9.0 kmh WSW 8.1 mph13.0 kmh 30.34 in1027.4 mb 0.00 in0.0 mm 0.00 in0.0 mm 0.00 in0.0 mm
01:40 AM 50.2°F10.1°C 44.3°F6.8°C 80% 6.3 mph WSW10.1 kmh WSW 7.6 mph12.2 kmh 30.34 in1027.4 mb 0.00 in0.0 mm 0.00 in0.0 mm 0.00 in0.0 mm
01:45 AM 50.1°F10.1°C 44.2°F6.8°C 80% 6.2 mph WSW10.0 kmh WSW 7.6 mph12.2 kmh 30.34 in1027.4 mb 0.00 in0.0 mm 0.00 in0.0 mm 0.00 in0.0 mm
01:50 AM 49.9°F9.9°C 43.9°F6.6°C 80% 5.8 mph WSW9.3 kmh WSW 6.9 mph11.1 kmh 30.34 in1027.4 mb 0.00 in0.0 mm 0.00 in0.0 mm 0.00 in0.0 mm
01:55 AM 49.8°F9.9°C 43.7°F6.5°C 79% 5.6 mph WSW9.0 kmh WSW 5.8 mph9.3 kmh 30.34 in1027.4 mb 0.00 in0.0 mm 0.00 in0.0 mm 0.00 in0.0 mm
02:00 AM 50.0°F10.0°C 44.1°F6.7°C 80% 4.7 mph W7.6 kmh W 4.7 mph7.6 kmh 30.34 in1027.4 mb 0.00 in0.0 mm 0.00 in0.0 mm 0.00 in0.0 mm
02:05 AM 50.2°F10.1°C 44.0°F6.7°C 79% 4.3 mph W6.9 kmh W 4.7 mph7.6 kmh 30.34 in1027.4 mb 0.00 in0.0 mm 0.00 in0.0 mm 0.00 in0.0 mm
02:10 AM 50.2°F10.1°C 43.8°F6.6°C 79% 2.9 mph WNW4.7 kmh WNW 4.0 mph6.4 kmh 30.33 in1027.1 mb 0.00 in0.0 mm 0.00 in0.0 mm 0.00 in0.0 mm
02:15 AM 50.0°F10.0°C 43.4°F6.3°C 78% 3.0 mph W4.8 kmh W 4.7 mph7.6 kmh 30.33 in1027.1 mb 0.00 in0.0 mm 0.00 in0.0 mm 0.00 in0.0 mm
02:20 AM 49.8°F9.9°C 43.3°F6.3°C 78% 3.1 mph W5.0 kmh W 5.8 mph9.3 kmh 30.33 in1027.1 mb 0.00 in0.0 mm 0.00 in0.0 mm 0.00 in0.0 mm
02:25 AM 49.8°F9.9°C 43.0°F6.1°C 77% 3.6 mph W5.8 kmh W 6.9 mph11.1 kmh 30.34 in1027.4 mb 0.00 in0.0 mm 0.00 in0.0 mm 0.00 in0.0 mm
02:30 AM 49.8°F9.9°C 42.6°F5.9°C 76% 5.1 mph W8.2 kmh W 7.4 mph11.9 kmh 30.34 in1027.4 mb 0.00 in0.0 mm 0.00 in0.0 mm 0.00 in0.0 mm
02:35 AM 49.8°F9.9°C 42.1°F5.6°C 75% 5.3 mph W8.5 kmh W 6.9 mph11.1 kmh 30.34 in1027.4 mb 0.00 in0.0 mm 0.00 in0.0 mm 0.00 in0.0 mm
02:40 AM 49.8°F9.9°C 41.6°F5.3°C 73% 5.8 mph WSW9.3 kmh WSW 6.5 mph10.5 kmh 30.34 in1027.4 mb 0.00 in0.0 mm 0.00 in0.0 mm 0.00 in0.0 mm
02:45 AM 49.8°F9.9°C 41.5°F5.3°C 73% 5.6 mph WSW9.0 kmh WSW 5.8 mph9.3 kmh 30.34 in1027.4 mb 0.00 in0.0 mm 0.00 in0.0 mm 0.00 in0.0 mm
02:50 AM 50.1°F10.1°C 41.5°F5.3°C 72% 4.7 mph W7.6 kmh W 5.8 mph9.3 kmh 30.34 in1027.4 mb 0.00 in0.0 mm 0.00 in0.0 mm 0.00 in0.0 mm
02:55 AM 50.2°F10.1°C 41.5°F5.3°C 72% 4.7 mph W7.6 kmh W 5.8 mph9.3 kmh 30.34 in1027.4 mb 0.00 in0.0 mm 0.00 in0.0 mm 0.00 in0.0 mm
03:00 AM 50.3°F10.2°C 41.6°F5.3°C 72% 4.7 mph W7.6 kmh W 6.5 mph10.5 kmh 30.34 in1027.4 mb 0.00 in0.0 mm 0.00 in0.0 mm 0.00 in0.0 mm
03:05 AM 50.4°F10.2°C 42.0°F5.6°C 73% 4.7 mph WNW7.6 kmh WNW 6.5 mph10.5 kmh 30.34 in1027.4 mb 0.00 in0.0 mm 0.00 in0.0 mm 0.00 in0.0 mm
03:10 AM 50.5°F10.3°C 42.5°F5.8°C 74% 4.7 mph WNW7.6 kmh WNW 4.7 mph7.6 kmh 30.34 in1027.4 mb 0.00 in0.0 mm 0.00 in0.0 mm 0.00 in0.0 mm
03:15 AM 50.5°F10.3°C 42.6°F5.9°C 74% 4.4 mph WNW7.1 kmh WNW 5.8 mph9.3 kmh 30.34 in1027.4 mb 0.00 in0.0 mm 0.00 in0.0 mm 0.00 in0.0 mm
03:20 AM 50.4°F10.2°C 42.9°F6.1°C 76% 3.6 mph WNW5.8 kmh WNW 5.8 mph9.3 kmh 30.34 in1027.4 mb 0.00 in0.0 mm 0.00 in0.0 mm 0.00 in0.0 mm
03:25 AM 50.3°F10.2°C 43.0°F6.1°C 76% 3.8 mph WNW6.1 kmh WNW 6.5 mph10.5 kmh 30.34 in1027.4 mb 0.00 in0.0 mm 0.00 in0.0 mm 0.00 in0.0 mm
03:30 AM 50.2°F10.1°C 42.5°F5.8°C 75% 4.7 mph WNW7.6 kmh WNW 5.4 mph8.7 kmh 30.34 in1027.4 mb 0.00 in0.0 mm 0.00 in0.0 mm 0.00 in0.0 mm
03:35 AM 50.0°F10.0°C 41.9°F5.5°C 74% 4.5 mph WNW7.2 kmh WNW 5.4 mph8.7 kmh 30.34 in1027.4 mb 0.00 in0.0 mm 0.00 in0.0 mm 0.00 in0.0 mm
03:40 AM 49.7°F9.8°C 41.2°F5.1°C 72% 4.0 mph W6.4 kmh W 6.5 mph10.5 kmh 30.34 in1027.4 mb 0.00 in0.0 mm 0.00 in0.0 mm 0.00 in0.0 mm
03:45 AM 49.6°F9.8°C 41.0°F5.0°C 72% 4.1 mph W6.6 kmh W 6.3 mph10.1 kmh 30.34 in1027.4 mb 0.00 in0.0 mm 0.00 in0.0 mm 0.00 in0.0 mm
03:50 AM 49.5°F9.7°C 40.8°F4.9°C 72% 4.3 mph WSW6.9 kmh WSW 6.5 mph10.5 kmh 30.34 in1027.4 mb 0.00 in0.0 mm 0.00 in0.0 mm 0.00 in0.0 mm
03:55 AM 49.5°F9.7°C 40.8°F4.9°C 72% 4.5 mph W7.2 kmh W 7.4 mph11.9 kmh 30.33 in1027.1 mb 0.00 in0.0 mm 0.00 in0.0 mm 0.00 in0.0 mm
04:00 AM 49.6°F9.8°C 40.6°F4.8°C 71% 5.1 mph W8.2 kmh W 7.6 mph12.2 kmh 30.33 in1027.1 mb 0.00 in0.0 mm 0.00 in0.0 mm 0.00 in0.0 mm
04:05 AM 49.6°F9.8°C 40.3°F4.6°C 70% 5.1 mph W8.2 kmh W 6.9 mph11.1 kmh 30.33 in1027.1 mb 0.00 in0.0 mm 0.00 in0.0 mm 0.00 in0.0 mm
04:10 AM 49.6°F9.8°C 40.1°F4.5°C 70% 5.1 mph W8.2 kmh W 7.6 mph12.2 kmh 30.33 in1027.1 mb 0.00 in0.0 mm 0.00 in0.0 mm 0.00 in0.0 mm
04:15 AM 49.6°F9.8°C 39.9°F4.4°C 69% 5.1 mph W8.2 kmh W 7.6 mph12.2 kmh 30.33 in1027.1 mb 0.00 in0.0 mm 0.00 in0.0 mm 0.00 in0.0 mm
04:20 AM 49.5°F9.7°C 39.7°F4.3°C 69% 5.1 mph W8.2 kmh W 6.3 mph10.1 kmh 30.33 in1027.1 mb 0.00 in0.0 mm 0.00 in0.0 mm 0.00 in0.0 mm
04:25 AM 49.5°F9.7°C 39.7°F4.3°C 69% 5.2 mph W8.4 kmh W 10.1 mph16.3 kmh 30.32 in1026.8 mb 0.00 in0.0 mm 0.00 in0.0 mm 0.00 in0.0 mm
04:30 AM 49.3°F9.6°C 39.6°F4.2°C 69% 5.4 mph W8.7 kmh W 10.3 mph16.6 kmh 30.32 in1026.8 mb 0.00 in0.0 mm 0.00 in0.0 mm 0.00 in0.0 mm
04:35 AM 49.3°F9.6°C 39.5°F4.2°C 69% 5.8 mph W9.3 kmh W 8.7 mph14.0 kmh 30.32 in1026.8 mb 0.00 in0.0 mm 0.00 in0.0 mm 0.00 in0.0 mm
04:40 AM 49.3°F9.6°C 39.6°F4.2°C 69% 7.4 mph W11.9 kmh W 8.5 mph13.7 kmh 30.32 in1026.8 mb 0.00 in0.0 mm 0.00 in0.0 mm 0.00 in0.0 mm
04:45 AM 49.3°F9.6°C 39.9°F4.4°C 70% 7.0 mph W11.3 kmh W 8.1 mph13.0 kmh 30.32 in1026.8 mb 0.00 in0.0 mm 0.00 in0.0 mm 0.00 in0.0 mm
04:50 AM 49.3°F9.6°C 39.9°F4.4°C 70% 5.8 mph WNW9.3 kmh WNW 7.4 mph11.9 kmh 30.32 in1026.8 mb 0.00 in0.0 mm 0.00 in0.0 mm 0.00 in0.0 mm
04:55 AM 49.3°F9.6°C 39.9°F4.4°C 70% 5.8 mph WNW9.3 kmh WNW 8.1 mph13.0 kmh 30.32 in1026.8 mb 0.00 in0.0 mm 0.00 in0.0 mm 0.00 in0.0 mm
05:00 AM 49.2°F9.6°C 39.9°F4.4°C 70% 5.8 mph WNW9.3 kmh WNW 7.4 mph11.9 kmh 30.32 in1026.8 mb 0.00 in0.0 mm 0.00 in0.0 mm 0.00 in0.0 mm
05:05 AM 49.0°F9.4°C 39.7°F4.3°C 70% 5.8 mph W9.3 kmh W 8.7 mph14.0 kmh 30.32 in1026.8 mb 0.00 in0.0 mm 0.00 in0.0 mm 0.00 in0.0 mm
05:10 AM 48.9°F9.4°C 39.6°F4.2°C 70% 5.8 mph W9.3 kmh W 11.2 mph18.0 kmh 30.32 in1026.8 mb 0.00 in0.0 mm 0.00 in0.0 mm 0.00 in0.0 mm
05:15 AM 49.1°F9.5°C 39.5°F4.2°C 69% 6.5 mph W10.5 kmh W 13.0 mph20.9 kmh 30.32 in1026.8 mb 0.00 in0.0 mm 0.00 in0.0 mm 0.00 in0.0 mm
05:20 AM 49.3°F9.6°C 39.3°F4.1°C 68% 8.7 mph W14.0 kmh W 12.3 mph19.8 kmh 30.32 in1026.8 mb 0.00 in0.0 mm 0.00 in0.0 mm 0.00 in0.0 mm
05:25 AM 49.5°F9.7°C 39.3°F4.1°C 68% 8.7 mph W14.0 kmh W 10.1 mph16.3 kmh 30.32 in1026.8 mb 0.00 in0.0 mm 0.00 in0.0 mm 0.00 in0.0 mm
05:30 AM 49.5°F9.7°C 39.0°F3.9°C 67% 8.7 mph W14.0 kmh W 11.4 mph18.3 kmh 30.32 in1026.8 mb 0.00 in0.0 mm 0.00 in0.0 mm 0.00 in0.0 mm
05:35 AM 49.3°F9.6°C 38.8°F3.8°C 67% 8.6 mph W13.8 kmh W 10.1 mph16.3 kmh 30.32 in1026.8 mb 0.00 in0.0 mm 0.00 in0.0 mm 0.00 in0.0 mm
05:40 AM 49.2°F9.6°C 38.7°F3.7°C 67% 8.1 mph W13.0 kmh W 9.2 mph14.8 kmh 30.32 in1026.8 mb 0.00 in0.0 mm 0.00 in0.0 mm 0.00 in0.0 mm
05:45 AM 48.9°F9.4°C 38.4°F3.6°C 67% 7.9 mph W12.7 kmh W 11.2 mph18.0 kmh 30.32 in1026.8 mb 0.00 in0.0 mm 0.00 in0.0 mm 0.00 in0.0 mm
05:50 AM 48.7°F9.3°C 38.3°F3.5°C 67% 7.4 mph WSW11.9 kmh WSW 11.9 mph19.2 kmh 30.32 in1026.8 mb 0.00 in0.0 mm 0.00 in0.0 mm 0.00 in0.0 mm
05:55 AM 48.6°F9.2°C 38.1°F3.4°C 67% 7.6 mph W12.2 kmh W 11.9 mph19.2 kmh 30.32 in1026.8 mb 0.00 in0.0 mm 0.00 in0.0 mm 0.00 in0.0 mm
06:00 AM 48.6°F9.2°C 38.1°F3.4°C 67% 8.5 mph W13.7 kmh W 9.6 mph15.4 kmh 30.32 in1026.8 mb 0.00 in0.0 mm 0.00 in0.0 mm 0.00 in0.0 mm
06:05 AM 48.6°F9.2°C 38.1°F3.4°C 67% 8.2 mph W13.2 kmh W 10.1 mph16.3 kmh 30.32 in1026.8 mb 0.00 in0.0 mm 0.00 in0.0 mm 0.00 in0.0 mm
06:10 AM 48.6°F9.2°C 38.1°F3.4°C 67% 7.4 mph W11.9 kmh W 10.3 mph16.6 kmh 30.32 in1026.8 mb 0.00 in0.0 mm 0.00 in0.0 mm 0.00 in0.0 mm
06:15 AM 48.6°F9.2°C 38.1°F3.4°C 67% 7.4 mph W11.9 kmh W 9.6 mph15.4 kmh 30.32 in1026.8 mb 0.00 in0.0 mm 0.00 in0.0 mm 0.00 in0.0 mm
06:20 AM 48.6°F9.2°C 38.1°F3.4°C 67% 7.4 mph W11.9 kmh W 10.7 mph17.2 kmh 30.32 in1026.8 mb 0.00 in0.0 mm 0.00 in0.0 mm 0.00 in0.0 mm
06:25 AM 48.6°F9.2°C 38.1°F3.4°C 67% 7.1 mph W11.4 kmh W 7.6 mph12.2 kmh 30.32 in1026.8 mb 0.00 in0.0 mm 0.00 in0.0 mm 0.00 in0.0 mm
06:30 AM 48.6°F9.2°C 38.1°F3.4°C 67% 6.3 mph W10.1 kmh W 7.6 mph12.2 kmh 30.32 in1026.8 mb 0.00 in0.0 mm 0.00 in0.0 mm 0.00 in0.0 mm
06:35 AM 48.6°F9.2°C 38.1°F3.4°C 67% 6.2 mph W10.0 kmh W 9.6 mph15.4 kmh 30.32 in1026.8 mb 0.00 in0.0 mm 0.00 in0.0 mm 0.00 in0.0 mm
06:40 AM 48.6°F9.2°C 38.1°F3.4°C 67% 5.8 mph W9.3 kmh W 9.6 mph15.4 kmh 30.33 in1027.1 mb 0.00 in0.0 mm 0.00 in0.0 mm 0.00 in0.0 mm
06:45 AM 48.7°F9.3°C 38.2°F3.4°C 67% 6.0 mph W9.7 kmh W 8.7 mph14.0 kmh 30.33 in1027.1 mb 0.00 in0.0 mm 0.00 in0.0 mm 0.00 in0.0 mm
06:50 AM 48.7°F9.3°C 38.3°F3.5°C 67% 6.5 mph W10.5 kmh W 9.6 mph15.4 kmh 30.33 in1027.1 mb 0.00 in0.0 mm 0.00 in0.0 mm 0.00 in0.0 mm
06:55 AM 48.7°F9.3°C 38.3°F3.5°C 67% 6.7 mph W10.8 kmh W 10.1 mph16.3 kmh 30.34 in1027.4 mb 0.00 in0.0 mm 0.00 in0.0 mm 0.00 in0.0 mm
07:00 AM 48.7°F9.3°C 38.3°F3.5°C 67% 7.4 mph W11.9 kmh W 10.1 mph16.3 kmh 30.34 in1027.4 mb 0.00 in0.0 mm 0.00 in0.0 mm 0.00 in0.0 mm
07:05 AM 48.7°F9.3°C 38.3°F3.5°C 67% 7.5 mph W12.1 kmh W 10.3 mph16.6 kmh 30.34 in1027.4 mb 0.00 in0.0 mm 0.00 in0.0 mm 0.00 in0.0 mm
07:10 AM 48.8°F9.3°C 38.3°F3.5°C 67% 8.1 mph W13.0 kmh W 10.1 mph16.3 kmh 30.34 in1027.4 mb 0.00 in0.0 mm 0.00 in0.0 mm 0.00 in0.0 mm
07:15 AM 48.8°F9.3°C 38.0°F3.3°C 66% 7.9 mph W12.7 kmh W 10.1 mph16.3 kmh 30.34 in1027.4 mb 0.00 in0.0 mm 0.00 in0.0 mm 0.00 in0.0 mm
07:20 AM 48.7°F9.3°C 37.9°F3.3°C 66% 7.4 mph W11.9 kmh W 10.7 mph17.2 kmh 30.34 in1027.4 mb 0.00 in0.0 mm 0.00 in0.0 mm 0.00 in0.0 mm
07:25 AM 48.7°F9.3°C 37.9°F3.3°C 66% 7.5 mph W12.1 kmh W 12.3 mph19.8 kmh 30.34 in1027.4 mb 0.00 in0.0 mm 0.00 in0.0 mm 0.00 in0.0 mm
07:30 AM 48.7°F9.3°C 37.5°F3.1°C 65% 8.1 mph WSW13.0 kmh WSW 12.5 mph20.1 kmh 30.34 in1027.4 mb 0.00 in0.0 mm 0.00 in0.0 mm 0.00 in0.0 mm
07:35 AM 48.7°F9.3°C 37.4°F3.0°C 65% 8.4 mph WSW13.5 kmh WSW 11.2 mph18.0 kmh 30.34 in1027.4 mb 0.00 in0.0 mm 0.00 in0.0 mm 0.00 in0.0 mm
07:40 AM 48.6°F9.2°C 37.4°F3.0°C 65% 9.6 mph W15.4 kmh W 10.1 mph16.3 kmh 30.35 in1027.8 mb 0.00 in0.0 mm 0.00 in0.0 mm 0.00 in0.0 mm
07:45 AM 48.6°F9.2°C 37.7°F3.2°C 66% 9.1 mph W14.6 kmh W 10.3 mph16.6 kmh 30.35 in1027.8 mb 0.00 in0.0 mm 0.00 in0.0 mm 0.00 in0.0 mm
07:50 AM 48.6°F9.2°C 37.7°F3.2°C 66% 7.6 mph W12.2 kmh W 9.2 mph14.8 kmh 30.35 in1027.8 mb 0.00 in0.0 mm 0.00 in0.0 mm 0.00 in0.0 mm
07:55 AM 48.7°F9.3°C 37.9°F3.3°C 66% 7.6 mph W12.2 kmh W 8.7 mph14.0 kmh 30.35 in1027.8 mb 0.00 in0.0 mm 0.00 in0.0 mm 0.00 in0.0 mm
08:00 AM 48.9°F9.4°C 38.0°F3.3°C 66% 7.4 mph W11.9 kmh W 8.1 mph13.0 kmh 30.34 in1027.4 mb 0.00 in0.0 mm 0.00 in0.0 mm 0.00 in0.0 mm
08:05 AM 48.9°F9.4°C 38.1°F3.4°C 66% 7.1 mph W11.4 kmh W 7.4 mph11.9 kmh 30.34 in1027.4 mb 0.00 in0.0 mm 0.00 in0.0 mm 0.00 in0.0 mm
08:10 AM 48.9°F9.4°C 38.1°F3.4°C 66% 6.3 mph W10.1 kmh W 8.5 mph13.7 kmh 30.35 in1027.8 mb 0.00 in0.0 mm 0.00 in0.0 mm 0.00 in0.0 mm
08:15 AM 48.9°F9.4°C 38.0°F3.3°C 66% 6.3 mph W10.1 kmh W 8.5 mph13.7 kmh 30.35 in1027.8 mb 0.00 in0.0 mm 0.00 in0.0 mm 0.00 in0.0 mm
08:20 AM 48.9°F9.4°C 37.7°F3.2°C 65% 6.5 mph W10.5 kmh W 9.2 mph14.8 kmh 30.35 in1027.8 mb 0.00 in0.0 mm 0.00 in0.0 mm 0.00 in0.0 mm
08:25 AM 48.9°F9.4°C 37.7°F3.2°C 65% 6.7 mph W10.8 kmh W 10.1 mph16.3 kmh 30.35 in1027.8 mb 0.00 in0.0 mm 0.00 in0.0 mm 0.00 in0.0 mm
08:30 AM 48.9°F9.4°C 37.7°F3.2°C 65% 7.4 mph WSW11.9 kmh WSW 10.3 mph16.6 kmh 30.35 in1027.8 mb 0.00 in0.0 mm 0.00 in0.0 mm 0.00 in0.0 mm
08:35 AM 49.1°F9.5°C 37.6°F3.1°C 64% 7.4 mph WSW11.9 kmh WSW 11.4 mph18.3 kmh 30.35 in1027.8 mb 0.00 in0.0 mm 0.00 in0.0 mm 0.00 in0.0 mm
08:40 AM 49.4°F9.7°C 37.7°F3.2°C 64% 7.6 mph WSW12.2 kmh WSW 10.7 mph17.2 kmh 30.36 in1028.1 mb 0.00 in0.0 mm 0.00 in0.0 mm 0.00 in0.0 mm
08:45 AM 49.6°F9.8°C 37.7°F3.2°C 63% 7.8 mph W12.6 kmh W 10.7 mph17.2 kmh 30.36 in1028.1 mb 0.00 in0.0 mm 0.00 in0.0 mm 0.00 in0.0 mm
08:50 AM 50.0°F10.0°C 37.9°F3.3°C 63% 8.5 mph W13.7 kmh W 12.5 mph20.1 kmh 30.36 in1028.1 mb 0.00 in0.0 mm 0.00 in0.0 mm 0.00 in0.0 mm
08:55 AM 50.3°F10.2°C 38.2°F3.4°C 63% 8.7 mph W14.0 kmh W 11.4 mph18.3 kmh 30.36 in1028.1 mb 0.00 in0.0 mm 0.00 in0.0 mm 0.00 in0.0 mm
09:00 AM 50.6°F10.3°C 38.1°F3.4°C 62% 9.2 mph W14.8 kmh W 9.2 mph14.8 kmh 30.37 in1028.4 mb 0.00 in0.0 mm 0.00 in0.0 mm 0.00 in0.0 mm
09:05 AM 50.9°F10.5°C 38.3°F3.5°C 62% 8.7 mph W14.0 kmh W 9.2 mph14.8 kmh 30.37 in1028.4 mb 0.00 in0.0 mm 0.00 in0.0 mm 0.00 in0.0 mm
09:10 AM 51.1°F10.6°C 38.6°F3.7°C 62% 7.4 mph W11.9 kmh W 10.3 mph16.6 kmh 30.37 in1028.4 mb 0.00 in0.0 mm 0.00 in0.0 mm 0.00 in0.0 mm
09:15 AM 51.3°F10.7°C 38.4°F3.6°C 61% 7.4 mph W11.9 kmh W 10.1 mph16.3 kmh 30.37 in1028.4 mb 0.00 in0.0 mm 0.00 in0.0 mm 0.00 in0.0 mm
09:20 AM 51.5°F10.8°C 38.5°F3.6°C 61% 7.6 mph WSW12.2 kmh WSW 10.7 mph17.2 kmh 30.37 in1028.4 mb 0.00 in0.0 mm 0.00 in0.0 mm 0.00 in0.0 mm
09:25 AM 51.6°F10.9°C 38.3°F3.5°C 60% 7.7 mph WSW12.4 kmh WSW 11.4 mph18.3 kmh 30.38 in1028.8 mb 0.00 in0.0 mm 0.00 in0.0 mm 0.00 in0.0 mm
09:30 AM 51.8°F11.0°C 38.4°F3.6°C 60% 8.1 mph WSW13.0 kmh WSW 11.2 mph18.0 kmh 30.38 in1028.8 mb 0.00 in0.0 mm 0.00 in0.0 mm 0.00 in0.0 mm
09:35 AM 52.0°F11.1°C 38.5°F3.6°C 60% 8.2 mph W13.2 kmh W 10.3 mph16.6 kmh 30.38 in1028.8 mb 0.00 in0.0 mm 0.00 in0.0 mm 0.00 in0.0 mm
09:40 AM 52.1°F11.2°C 38.3°F3.5°C 59% 8.5 mph W13.7 kmh W 10.7 mph17.2 kmh 30.38 in1028.8 mb 0.00 in0.0 mm 0.00 in0.0 mm 0.00 in0.0 mm
09:45 AM 52.4°F11.3°C 38.5°F3.6°C 59% 8.2 mph W13.2 kmh W 9.2 mph14.8 kmh 30.38 in1028.8 mb 0.00 in0.0 mm 0.00 in0.0 mm 0.00 in0.0 mm
09:50 AM 52.6°F11.4°C 38.6°F3.7°C 59% 7.4 mph W11.9 kmh W 11.2 mph18.0 kmh 30.38 in1028.8 mb 0.00 in0.0 mm 0.00 in0.0 mm 0.00 in0.0 mm
09:55 AM 53.0°F11.7°C 38.6°F3.7°C 58% 7.4 mph W11.9 kmh W 10.1 mph16.3 kmh 30.38 in1028.8 mb 0.00 in0.0 mm 0.00 in0.0 mm 0.00 in0.0 mm
10:00 AM 53.3°F11.8°C 38.9°F3.8°C 58% 7.6 mph W12.2 kmh W 9.2 mph14.8 kmh 30.38 in1028.8 mb 0.00 in0.0 mm 0.00 in0.0 mm 0.00 in0.0 mm
10:05 AM 53.7°F12.1°C 38.9°F3.8°C 57% 7.6 mph W12.2 kmh W 10.3 mph16.6 kmh 30.38 in1028.8 mb 0.00 in0.0 mm 0.00 in0.0 mm 0.00 in0.0 mm
10:10 AM 54.0°F12.2°C 38.9°F3.8°C 56% 7.4 mph W11.9 kmh W 11.9 mph19.2 kmh 30.39 in1029.1 mb 0.00 in0.0 mm 0.00 in0.0 mm 0.00 in0.0 mm
10:15 AM 54.1°F12.3°C 38.8°F3.8°C 56% 7.5 mph WSW12.1 kmh WSW 10.1 mph16.3 kmh 30.39 in1029.1 mb 0.00 in0.0 mm 0.00 in0.0 mm 0.00 in0.0 mm
10:20 AM 54.1°F12.3°C 38.8°F3.8°C 56% 8.1 mph WSW13.0 kmh WSW 10.7 mph17.2 kmh 30.39 in1029.1 mb 0.00 in0.0 mm 0.00 in0.0 mm 0.00 in0.0 mm
10:25 AM 54.2°F12.3°C 38.8°F3.8°C 56% 8.1 mph WSW13.0 kmh WSW 10.7 mph17.2 kmh 30.38 in1028.8 mb 0.00 in0.0 mm 0.00 in0.0 mm 0.00 in0.0 mm
10:30 AM 54.3°F12.4°C 38.7°F3.7°C 55% 8.1 mph W13.0 kmh W 11.2 mph18.0 kmh 30.38 in1028.8 mb 0.00 in0.0 mm 0.00 in0.0 mm 0.00 in0.0 mm
10:35 AM 54.6°F12.6°C 38.7°F3.7°C 55% 8.1 mph W13.0 kmh W 10.3 mph16.6 kmh 30.38 in1028.8 mb 0.00 in0.0 mm 0.00 in0.0 mm 0.00 in0.0 mm
10:40 AM 54.7°F12.6°C 38.9°F3.8°C 55% 8.1 mph WSW13.0 kmh WSW 9.6 mph15.4 kmh 30.39 in1029.1 mb 0.00 in0.0 mm 0.00 in0.0 mm 0.00 in0.0 mm
10:45 AM 54.9°F12.7°C 39.1°F3.9°C 55% 7.8 mph WSW12.6 kmh WSW 10.1 mph16.3 kmh 30.39 in1029.1 mb 0.00 in0.0 mm 0.00 in0.0 mm 0.00 in0.0 mm
10:50 AM 55.1°F12.8°C 39.2°F4.0°C 55% 6.9 mph WSW11.1 kmh WSW 11.4 mph18.3 kmh 30.39 in1029.1 mb 0.00 in0.0 mm 0.00 in0.0 mm 0.00 in0.0 mm
10:55 AM 55.2°F12.9°C 39.1°F3.9°C 55% 7.3 mph WSW11.7 kmh WSW 10.7 mph17.2 kmh 30.40 in1029.5 mb 0.00 in0.0 mm 0.00 in0.0 mm 0.00 in0.0 mm
11:00 AM 55.5°F13.1°C 39.6°F4.2°C 55% 8.5 mph WSW13.7 kmh WSW 8.5 mph13.7 kmh 30.40 in1029.5 mb 0.00 in0.0 mm 0.00 in0.0 mm 0.00 in0.0 mm
11:05 AM 55.7°F13.2°C 39.8°F4.3°C 55% 8.0 mph WSW12.9 kmh WSW 8.5 mph13.7 kmh 30.40 in1029.5 mb 0.00 in0.0 mm 0.00 in0.0 mm 0.00 in0.0 mm
11:10 AM 56.0°F13.3°C 40.0°F4.4°C 55% 6.3 mph W10.1 kmh W 8.1 mph13.0 kmh 30.39 in1029.1 mb 0.00 in0.0 mm 0.00 in0.0 mm 0.00 in0.0 mm
11:15 AM 56.2°F13.4°C 40.2°F4.6°C 55% 6.0 mph W9.7 kmh W 6.3 mph10.1 kmh 30.39 in1029.1 mb 0.00 in0.0 mm 0.00 in0.0 mm 0.00 in0.0 mm
11:20 AM 56.5°F13.6°C 40.5°F4.7°C 55% 5.1 mph W8.2 kmh W 5.8 mph9.3 kmh 30.39 in1029.1 mb 0.00 in0.0 mm 0.00 in0.0 mm 0.00 in0.0 mm
11:25 AM 56.7°F13.7°C 40.7°F4.8°C 55% 4.9 mph W7.9 kmh W 6.9 mph11.1 kmh 30.39 in1029.1 mb 0.00 in0.0 mm 0.00 in0.0 mm 0.00 in0.0 mm
11:30 AM 56.9°F13.8°C 40.4°F4.7°C 54% 4.3 mph WSW6.9 kmh WSW 8.1 mph13.0 kmh 30.39 in1029.1 mb 0.00 in0.0 mm 0.00 in0.0 mm 0.00 in0.0 mm
11:35 AM 57.0°F13.9°C 40.2°F4.6°C 53% 4.5 mph WSW7.2 kmh WSW 9.6 mph15.4 kmh 30.39 in1029.1 mb 0.00 in0.0 mm 0.00 in0.0 mm 0.00 in0.0 mm
11:40 AM 57.0°F13.9°C 40.1°F4.5°C 53% 5.4 mph WSW8.7 kmh WSW 8.5 mph13.7 kmh 30.39 in1029.1 mb 0.00 in0.0 mm 0.00 in0.0 mm 0.00 in0.0 mm
11:45 AM 57.1°F13.9°C 40.1°F4.5°C 53% 5.5 mph WSW8.9 kmh WSW 6.5 mph10.5 kmh 30.39 in1029.1 mb 0.00 in0.0 mm 0.00 in0.0 mm 0.00 in0.0 mm
11:50 AM 57.3°F14.1°C 40.3°F4.6°C 53% 5.8 mph WSW9.3 kmh WSW 6.3 mph10.1 kmh 30.39 in1029.1 mb 0.00 in0.0 mm 0.00 in0.0 mm 0.00 in0.0 mm
11:55 AM 57.5°F14.2°C 40.5°F4.7°C 53% 5.6 mph WSW9.0 kmh WSW 6.5 mph10.5 kmh 30.39 in1029.1 mb 0.00 in0.0 mm 0.00 in0.0 mm 0.00 in0.0 mm
12:00 PM 57.6°F14.2°C 40.6°F4.8°C 53% 4.7 mph WSW7.6 kmh WSW 8.5 mph13.7 kmh 30.39 in1029.1 mb 0.00 in0.0 mm 0.00 in0.0 mm 0.00 in0.0 mm
12:05 PM 57.7°F14.3°C 40.2°F4.6°C 52% 5.0 mph WSW8.0 kmh WSW 8.5 mph13.7 kmh 30.39 in1029.1 mb 0.00 in0.0 mm 0.00 in0.0 mm 0.00 in0.0 mm
12:10 PM 57.9°F14.4°C 40.5°F4.7°C 52% 5.8 mph WSW9.3 kmh WSW 5.8 mph9.3 kmh 30.38 in1028.8 mb 0.00 in0.0 mm 0.00 in0.0 mm 0.00 in0.0 mm
12:15 PM 58.2°F14.6°C 40.7°F4.8°C 52% 5.3 mph WSW8.5 kmh WSW 5.8 mph9.3 kmh 30.38 in1028.8 mb 0.00 in0.0 mm 0.00 in0.0 mm 0.00 in0.0 mm
12:20 PM 58.6°F14.8°C 41.0°F5.0°C 52% 3.6 mph WSW5.8 kmh WSW 5.1 mph8.2 kmh 30.38 in1028.8 mb 0.00 in0.0 mm 0.00 in0.0 mm 0.00 in0.0 mm
12:25 PM 58.9°F14.9°C 41.3°F5.2°C 52% 3.6 mph WSW5.8 kmh WSW 6.5 mph10.5 kmh 30.38 in1028.8 mb 0.00 in0.0 mm 0.00 in0.0 mm 0.00 in0.0 mm
12:30 PM 59.2°F15.1°C 41.3°F5.2°C 51% 3.6 mph SW5.8 kmh SW 8.1 mph13.0 kmh 30.38 in1028.8 mb 0.00 in0.0 mm 0.00 in0.0 mm 0.00 in0.0 mm
12:35 PM 59.4°F15.2°C 41.2°F5.1°C 51% 4.1 mph SW6.6 kmh SW 8.5 mph13.7 kmh 30.38 in1028.8 mb 0.00 in0.0 mm 0.00 in0.0 mm 0.00 in0.0 mm
12:40 PM 59.5°F15.3°C 41.4°F5.2°C 51% 5.8 mph WSW9.3 kmh WSW 6.9 mph11.1 kmh 30.38 in1028.8 mb 0.00 in0.0 mm 0.00 in0.0 mm 0.00 in0.0 mm
12:45 PM 59.6°F15.3°C 41.4°F5.2°C 51% 5.6 mph WSW9.0 kmh WSW 6.9 mph11.1 kmh 30.38 in1028.8 mb 0.00 in0.0 mm 0.00 in0.0 mm 0.00 in0.0 mm
12:50 PM 59.7°F15.4°C 41.6°F5.3°C 51% 4.7 mph WSW7.6 kmh WSW 6.3 mph10.1 kmh 30.38 in1028.8 mb 0.00 in0.0 mm 0.00 in0.0 mm 0.00 in0.0 mm
12:55 PM 60.0°F15.6°C 41.4°F5.2°C 50% 4.5 mph WSW7.2 kmh WSW 5.1 mph8.2 kmh 30.37 in1028.4 mb 0.00 in0.0 mm 0.00 in0.0 mm 0.00 in0.0 mm
01:00 PM 60.3°F15.7°C 42.0°F5.6°C 51% 4.0 mph SW6.4 kmh SW 5.4 mph8.7 kmh 30.37 in1028.4 mb 0.00 in0.0 mm 0.00 in0.0 mm 0.00 in0.0 mm
01:05 PM 60.7°F15.9°C 42.4°F5.8°C 51% 3.8 mph SW6.1 kmh SW 4.0 mph6.4 kmh 30.37 in1028.4 mb 0.00 in0.0 mm 0.00 in0.0 mm 0.00 in0.0 mm
01:10 PM 61.2°F16.2°C 42.4°F5.8°C 50% 2.9 mph SW4.7 kmh SW 3.1 mph5.0 kmh 30.37 in1028.4 mb 0.00 in0.0 mm 0.00 in0.0 mm 0.00 in0.0 mm
01:15 PM 61.7°F16.5°C 42.5°F5.8°C 49% 2.7 mph SW4.3 kmh SW 3.6 mph5.8 kmh 30.37 in1028.4 mb 0.00 in0.0 mm 0.00 in0.0 mm 0.00 in0.0 mm
01:20 PM 62.3°F16.8°C 42.5°F5.8°C 48% 2.0 mph SW3.2 kmh SW 4.0 mph6.4 kmh 30.37 in1028.4 mb 0.00 in0.0 mm 0.00 in0.0 mm 0.00 in0.0 mm
01:25 PM 62.9°F17.2°C 42.9°F6.1°C 48% 2.0 mph SW3.2 kmh SW 2.9 mph4.7 kmh 30.36 in1028.1 mb 0.00 in0.0 mm 0.00 in0.0 mm 0.00 in0.0 mm
01:30 PM 63.2°F17.3°C 42.7°F5.9°C 47% 1.8 mph WSW2.9 kmh WSW 2.9 mph4.7 kmh 30.36 in1028.1 mb 0.00 in0.0 mm 0.00 in0.0 mm 0.00 in0.0 mm
01:35 PM 63.7°F17.6°C 43.0°F6.1°C 47% 1.7 mph SW2.7 kmh SW 3.1 mph5.0 kmh 30.36 in1028.1 mb 0.00 in0.0 mm 0.00 in0.0 mm 0.00 in0.0 mm
01:40 PM 63.9°F17.7°C 42.7°F5.9°C 46% 1.3 mph SW2.1 kmh SW 3.1 mph5.0 kmh 30.36 in1028.1 mb 0.00 in0.0 mm 0.00 in0.0 mm 0.00 in0.0 mm
01:45 PM 63.9°F17.7°C 43.2°F6.2°C 47% 1.4 mph SSW2.3 kmh SSW 2.0 mph3.2 kmh 30.36 in1028.1 mb 0.00 in0.0 mm 0.00 in0.0 mm 0.00 in0.0 mm
01:50 PM 64.1°F17.8°C 43.2°F6.2°C 47% 1.8 mph ESE2.9 kmh ESE 3.6 mph5.8 kmh 30.36 in1028.1 mb 0.00 in0.0 mm 0.00 in0.0 mm 0.00 in0.0 mm
01:55 PM 64.2°F17.9°C 43.0°F6.1°C 46% 1.8 mph ESE2.9 kmh ESE 4.3 mph6.9 kmh 30.36 in1028.1 mb 0.00 in0.0 mm 0.00 in0.0 mm 0.00 in0.0 mm
02:00 PM 64.4°F18.0°C 43.2°F6.2°C 46% 2.0 mph ESE3.2 kmh ESE 5.8 mph9.3 kmh 30.36 in1028.1 mb 0.00 in0.0 mm 0.00 in0.0 mm 0.00 in0.0 mm
02:05 PM 64.3°F17.9°C 43.6°F6.4°C 47% 2.3 mph SE3.7 kmh SE 7.4 mph11.9 kmh 30.36 in1028.1 mb 0.00 in0.0 mm 0.00 in0.0 mm 0.00 in0.0 mm
02:10 PM 63.8°F17.7°C 44.0°F6.7°C 49% 3.1 mph SE5.0 kmh SE 9.2 mph14.8 kmh 30.36 in1028.1 mb 0.00 in0.0 mm 0.00 in0.0 mm 0.00 in0.0 mm
02:15 PM 63.1°F17.3°C 44.4°F6.9°C 50% 3.8 mph SE6.1 kmh SE 15.2 mph24.5 kmh 30.35 in1027.8 mb 0.00 in0.0 mm 0.00 in0.0 mm 0.00 in0.0 mm
02:20 PM 62.4°F16.9°C 44.9°F7.2°C 53% 5.8 mph E9.3 kmh E 10.3 mph16.6 kmh 30.35 in1027.8 mb 0.00 in0.0 mm 0.00 in0.0 mm 0.00 in0.0 mm
02:25 PM 62.3°F16.8°C 45.6°F7.6°C 55% 6.1 mph E9.8 kmh E 10.3 mph16.6 kmh 30.35 in1027.8 mb 0.00 in0.0 mm 0.00 in0.0 mm 0.00 in0.0 mm
02:30 PM 62.2°F16.8°C 46.1°F7.8°C 55% 6.9 mph NE11.1 kmh NE 14.1 mph22.7 kmh 30.35 in1027.8 mb 0.00 in0.0 mm 0.00 in0.0 mm 0.00 in0.0 mm
02:35 PM 62.1°F16.7°C 46.2°F7.9°C 56% 7.4 mph ENE11.9 kmh ENE 16.8 mph27.0 kmh 30.35 in1027.8 mb 0.00 in0.0 mm 0.00 in0.0 mm 0.00 in0.0 mm
02:40 PM 61.7°F16.5°C 46.2°F7.9°C 57% 8.7 mph ENE14.0 kmh ENE 15.9 mph25.6 kmh 30.35 in1027.8 mb 0.00 in0.0 mm 0.00 in0.0 mm 0.00 in0.0 mm
02:45 PM 61.6°F16.4°C 46.2°F7.9°C 57% 9.1 mph ENE14.6 kmh ENE 13.6 mph21.9 kmh 30.35 in1027.8 mb 0.00 in0.0 mm 0.00 in0.0 mm 0.00 in0.0 mm
02:50 PM 61.6°F16.4°C 46.8°F8.2°C 58% 10.3 mph ENE16.6 kmh ENE 12.3 mph19.8 kmh 30.35 in1027.8 mb 0.00 in0.0 mm 0.00 in0.0 mm 0.00 in0.0 mm
02:55 PM 61.8°F16.6°C 47.0°F8.3°C 58% 10.1 mph ENE16.3 kmh ENE 15.9 mph25.6 kmh 30.35 in1027.8 mb 0.00 in0.0 mm 0.00 in0.0 mm 0.00 in0.0 mm
03:00 PM 61.6°F16.4°C 47.0°F8.3°C 59% 9.6 mph ENE15.4 kmh ENE 13.6 mph21.9 kmh 30.35 in1027.8 mb 0.00 in0.0 mm 0.00 in0.0 mm 0.00 in0.0 mm
03:05 PM 61.9°F16.6°C 47.4°F8.6°C 59% 9.2 mph ENE14.8 kmh ENE 12.3 mph19.8 kmh 30.35 in1027.8 mb 0.00 in0.0 mm 0.00 in0.0 mm 0.00 in0.0 mm
03:10 PM 61.8°F16.6°C 47.2°F8.4°C 59% 8.1 mph ENE13.0 kmh ENE 16.3 mph26.2 kmh 30.35 in1027.8 mb 0.00 in0.0 mm 0.00 in0.0 mm 0.00 in0.0 mm
03:15 PM 61.6°F16.4°C 47.0°F8.3°C 59% 8.5 mph ENE13.7 kmh ENE 15.7 mph25.3 kmh 30.35 in1027.8 mb 0.00 in0.0 mm 0.00 in0.0 mm 0.00 in0.0 mm
03:20 PM 61.4°F16.3°C 47.1°F8.4°C 59% 10.1 mph ENE16.3 kmh ENE 13.0 mph20.9 kmh 30.35 in1027.8 mb 0.00 in0.0 mm 0.00 in0.0 mm 0.00 in0.0 mm
03:25 PM 61.2°F16.2°C 47.5°F8.6°C 61% 9.9 mph ENE15.9 kmh ENE 13.6 mph21.9 kmh 30.36 in1028.1 mb 0.00 in0.0 mm 0.00 in0.0 mm 0.00 in0.0 mm
03:30 PM 61.2°F16.2°C 47.6°F8.7°C 61% 9.2 mph ENE14.8 kmh ENE 13.6 mph21.9 kmh 30.36 in1028.1 mb 0.00 in0.0 mm 0.00 in0.0 mm 0.00 in0.0 mm
03:35 PM 61.2°F16.2°C 47.6°F8.7°C 61% 9.0 mph ENE14.5 kmh ENE 12.5 mph20.1 kmh 30.36 in1028.1 mb 0.00 in0.0 mm 0.00 in0.0 mm 0.00 in0.0 mm
03:40 PM 61.1°F16.2°C 47.9°F8.8°C 62% 8.5 mph ENE13.7 kmh ENE 13.6 mph21.9 kmh 30.36 in1028.1 mb 0.00 in0.0 mm 0.00 in0.0 mm 0.00 in0.0 mm
03:45 PM 60.8°F16.0°C 47.9°F8.8°C 62% 8.6 mph ENE13.8 kmh ENE 12.5 mph20.1 kmh 30.36 in1028.1 mb 0.00 in0.0 mm 0.00 in0.0 mm 0.00 in0.0 mm
03:50 PM 60.6°F15.9°C 48.1°F8.9°C 63% 8.7 mph ENE14.0 kmh ENE 12.5 mph20.1 kmh 30.36 in1028.1 mb 0.00 in0.0 mm 0.00 in0.0 mm 0.00 in0.0 mm
03:55 PM 60.6°F15.9°C 48.3°F9.1°C 64% 8.7 mph ENE14.0 kmh ENE 10.7 mph17.2 kmh 30.36 in1028.1 mb 0.00 in0.0 mm 0.00 in0.0 mm 0.00 in0.0 mm
04:00 PM 60.5°F15.8°C 48.5°F9.2°C 64% 8.5 mph ENE13.7 kmh ENE 11.4 mph18.3 kmh 30.37 in1028.4 mb 0.00 in0.0 mm 0.00 in0.0 mm 0.00 in0.0 mm
04:05 PM 60.5°F15.8°C 48.5°F9.2°C 65% 8.1 mph ENE13.0 kmh ENE 9.6 mph15.4 kmh 30.37 in1028.4 mb 0.00 in0.0 mm 0.00 in0.0 mm 0.00 in0.0 mm
04:10 PM 60.4°F15.8°C 48.6°F9.2°C 65% 6.9 mph ENE11.1 kmh ENE 9.2 mph14.8 kmh 30.37 in1028.4 mb 0.00 in0.0 mm 0.00 in0.0 mm 0.00 in0.0 mm
04:15 PM 60.4°F15.8°C 48.9°F9.4°C 66% 6.8 mph ENE10.9 kmh ENE 8.5 mph13.7 kmh 30.37 in1028.4 mb 0.00 in0.0 mm 0.00 in0.0 mm 0.00 in0.0 mm
04:20 PM 60.3°F15.7°C 48.9°F9.4°C 66% 6.5 mph ENE10.5 kmh ENE 9.6 mph15.4 kmh 30.37 in1028.4 mb 0.00 in0.0 mm 0.00 in0.0 mm 0.00 in0.0 mm
04:25 PM 60.1°F15.6°C 49.1°F9.5°C 67% 6.6 mph ENE10.6 kmh ENE 10.3 mph16.6 kmh 30.37 in1028.4 mb 0.00 in0.0 mm 0.00 in0.0 mm 0.00 in0.0 mm
04:30 PM 60.0°F15.6°C 49.3°F9.6°C 68% 6.9 mph ENE11.1 kmh ENE 11.4 mph18.3 kmh 30.37 in1028.4 mb 0.00 in0.0 mm 0.00 in0.0 mm 0.00 in0.0 mm
04:35 PM 59.8°F15.4°C 49.2°F9.6°C 68% 7.1 mph ENE11.4 kmh ENE 9.6 mph15.4 kmh 30.37 in1028.4 mb 0.00 in0.0 mm 0.00 in0.0 mm 0.00 in0.0 mm
04:40 PM 59.7°F15.4°C 49.5°F9.7°C 69% 7.6 mph ENE12.2 kmh ENE 10.3 mph16.6 kmh 30.37 in1028.4 mb 0.00 in0.0 mm 0.00 in0.0 mm 0.00 in0.0 mm
04:45 PM 59.7°F15.4°C 49.5°F9.7°C 69% 7.2 mph ENE11.6 kmh ENE 7.6 mph12.2 kmh 30.38 in1028.8 mb 0.00 in0.0 mm 0.00 in0.0 mm 0.00 in0.0 mm
04:50 PM 59.7°F15.4°C 49.7°F9.8°C 70% 5.8 mph ENE9.3 kmh ENE 6.5 mph10.5 kmh 30.38 in1028.8 mb 0.00 in0.0 mm 0.00 in0.0 mm 0.00 in0.0 mm
04:55 PM 59.7°F15.4°C 49.9°F9.9°C 70% 5.6 mph ENE9.0 kmh ENE 8.1 mph13.0 kmh 30.38 in1028.8 mb 0.00 in0.0 mm 0.00 in0.0 mm 0.00 in0.0 mm
05:00 PM 59.6°F15.3°C 49.8°F9.9°C 70% 4.7 mph ENE7.6 kmh ENE 5.4 mph8.7 kmh 30.38 in1028.8 mb 0.00 in0.0 mm 0.00 in0.0 mm 0.00 in0.0 mm
05:05 PM 59.5°F15.3°C 49.7°F9.8°C 70% 4.3 mph ENE6.9 kmh ENE 5.8 mph9.3 kmh 30.38 in1028.8 mb 0.00 in0.0 mm 0.00 in0.0 mm 0.00 in0.0 mm
05:10 PM 59.5°F15.3°C 49.7°F9.8°C 70% 3.1 mph NE5.0 kmh NE 6.9 mph11.1 kmh 30.38 in1028.8 mb 0.00 in0.0 mm 0.00 in0.0 mm 0.00 in0.0 mm
05:15 PM 59.4°F15.2°C 49.7°F9.8°C 70% 3.5 mph NE5.6 kmh NE 7.6 mph12.2 kmh 30.38 in1028.8 mb 0.00 in0.0 mm 0.00 in0.0 mm 0.00 in0.0 mm
05:20 PM 59.3°F15.2°C 49.9°F9.9°C 71% 4.7 mph NE7.6 kmh NE 8.5 mph13.7 kmh 30.38 in1028.8 mb 0.00 in0.0 mm 0.00 in0.0 mm 0.00 in0.0 mm
05:25 PM 59.2°F15.1°C 49.8°F9.9°C 71% 4.8 mph NE7.7 kmh NE 6.9 mph11.1 kmh 30.38 in1028.8 mb 0.00 in0.0 mm 0.00 in0.0 mm 0.00 in0.0 mm
05:30 PM 59.0°F15.0°C 49.9°F9.9°C 72% 5.1 mph ENE8.2 kmh ENE 6.3 mph10.1 kmh 30.38 in1028.8 mb 0.00 in0.0 mm 0.00 in0.0 mm 0.00 in0.0 mm
05:35 PM 58.8°F14.9°C 49.8°F9.9°C 72% 4.9 mph ENE7.9 kmh ENE 5.4 mph8.7 kmh 30.38 in1028.8 mb 0.00 in0.0 mm 0.00 in0.0 mm 0.00 in0.0 mm
05:40 PM 58.7°F14.8°C 49.7°F9.8°C 72% 4.0 mph NE6.4 kmh NE 6.3 mph10.1 kmh 30.38 in1028.8 mb 0.00 in0.0 mm 0.00 in0.0 mm 0.00 in0.0 mm
05:45 PM 58.6°F14.8°C 49.8°F9.9°C 72% 4.0 mph NE6.4 kmh NE 5.8 mph9.3 kmh 30.38 in1028.8 mb 0.00 in0.0 mm 0.00 in0.0 mm 0.00 in0.0 mm
05:50 PM 58.5°F14.7°C 49.9°F9.9°C 73% 4.0 mph NE6.4 kmh NE 5.1 mph8.2 kmh 30.38 in1028.8 mb 0.00 in0.0 mm 0.00 in0.0 mm 0.00 in0.0 mm
05:55 PM 58.5°F14.7°C 49.8°F9.9°C 73% 3.7 mph NE6.0 kmh NE 4.0 mph6.4 kmh 30.39 in1029.1 mb 0.00 in0.0 mm 0.00 in0.0 mm 0.00 in0.0 mm
06:00 PM 58.3°F14.6°C 49.7°F9.8°C 73% 2.5 mph NE4.0 kmh NE 4.0 mph6.4 kmh 30.39 in1029.1 mb 0.00 in0.0 mm 0.00 in0.0 mm 0.00 in0.0 mm
06:05 PM 58.3°F14.6°C 49.7°F9.8°C 73% 2.5 mph NE4.0 kmh NE 4.0 mph6.4 kmh 30.39 in1029.1 mb 0.00 in0.0 mm 0.00 in0.0 mm 0.00 in0.0 mm
06:10 PM 58.2°F14.6°C 49.5°F9.7°C 73% 2.5 mph NNE4.0 kmh NNE 3.6 mph5.8 kmh 30.39 in1029.1 mb 0.00 in0.0 mm 0.00 in0.0 mm 0.00 in0.0 mm
06:15 PM 58.0°F14.4°C 49.4°F9.7°C 73% 2.5 mph NNE4.0 kmh NNE 4.7 mph7.6 kmh 30.39 in1029.1 mb 0.00 in0.0 mm 0.00 in0.0 mm 0.00 in0.0 mm
06:20 PM 57.9°F14.4°C 49.3°F9.6°C 73% 2.5 mph N4.0 kmh N 4.7 mph7.6 kmh 30.39 in1029.1 mb 0.00 in0.0 mm 0.00 in0.0 mm 0.00 in0.0 mm
06:25 PM 57.9°F14.4°C 49.3°F9.6°C 73% 2.6 mph N4.2 kmh N 4.7 mph7.6 kmh 30.39 in1029.1 mb 0.00 in0.0 mm 0.00 in0.0 mm 0.00 in0.0 mm
06:30 PM 57.8°F14.3°C 49.2°F9.6°C 73% 3.1 mph NNW5.0 kmh NNW 5.1 mph8.2 kmh 30.39 in1029.1 mb 0.00 in0.0 mm 0.00 in0.0 mm 0.00 in0.0 mm
06:35 PM 57.7°F14.3°C 49.1°F9.5°C 73% 3.2 mph NNW5.1 kmh NNW 5.8 mph9.3 kmh 30.39 in1029.1 mb 0.00 in0.0 mm 0.00 in0.0 mm 0.00 in0.0 mm
06:40 PM 57.6°F14.2°C 49.0°F9.4°C 73% 3.6 mph NNW5.8 kmh NNW 5.8 mph9.3 kmh 30.39 in1029.1 mb 0.00 in0.0 mm 0.00 in0.0 mm 0.00 in0.0 mm
06:45 PM 57.6°F14.2°C 49.0°F9.4°C 73% 3.7 mph NNW6.0 kmh NNW 5.8 mph9.3 kmh 30.39 in1029.1 mb 0.00 in0.0 mm 0.00 in0.0 mm 0.00 in0.0 mm
06:50 PM 57.4°F14.1°C 48.8°F9.3°C 73% 4.3 mph NNW6.9 kmh NNW 5.8 mph9.3 kmh 30.39 in1029.1 mb 0.00 in0.0 mm 0.00 in0.0 mm 0.00 in0.0 mm
06:55 PM 57.3°F14.1°C 48.7°F9.3°C 73% 4.4 mph NNW7.1 kmh NNW 6.5 mph10.5 kmh 30.40 in1029.5 mb 0.00 in0.0 mm 0.00 in0.0 mm 0.00 in0.0 mm
07:00 PM 57.1°F13.9°C 48.8°F9.3°C 74% 4.7 mph NNW7.6 kmh NNW 6.5 mph10.5 kmh 30.40 in1029.5 mb 0.00 in0.0 mm 0.00 in0.0 mm 0.00 in0.0 mm
07:05 PM 57.0°F13.9°C 48.8°F9.3°C 74% 4.8 mph NNW7.7 kmh NNW 6.9 mph11.1 kmh 30.40 in1029.5 mb 0.00 in0.0 mm 0.00 in0.0 mm 0.00 in0.0 mm
07:10 PM 56.9°F13.8°C 48.8°F9.3°C 74% 5.1 mph NNW8.2 kmh NNW 7.4 mph11.9 kmh 30.40 in1029.5 mb 0.00 in0.0 mm 0.00 in0.0 mm 0.00 in0.0 mm
07:15 PM 56.8°F13.8°C 49.0°F9.4°C 75% 5.3 mph NNW8.5 kmh NNW 10.1 mph16.3 kmh 30.40 in1029.5 mb 0.00 in0.0 mm 0.00 in0.0 mm 0.00 in0.0 mm
07:20 PM 56.7°F13.7°C 48.8°F9.3°C 75% 5.8 mph NNW9.3 kmh NNW 9.2 mph14.8 kmh 30.40 in1029.5 mb 0.00 in0.0 mm 0.00 in0.0 mm 0.00 in0.0 mm
07:25 PM 56.7°F13.7°C 49.2°F9.6°C 76% 5.8 mph NNW9.3 kmh NNW 8.1 mph13.0 kmh 30.40 in1029.5 mb 0.00 in0.0 mm 0.00 in0.0 mm 0.00 in0.0 mm
07:30 PM 56.7°F13.7°C 49.2°F9.6°C 76% 5.8 mph N9.3 kmh N 7.6 mph12.2 kmh 30.40 in1029.5 mb 0.00 in0.0 mm 0.00 in0.0 mm 0.00 in0.0 mm
07:35 PM 56.7°F13.7°C 49.2°F9.6°C 76% 5.7 mph N9.2 kmh N 8.5 mph13.7 kmh 30.40 in1029.5 mb 0.00 in0.0 mm 0.00 in0.0 mm 0.00 in0.0 mm
07:40 PM 56.7°F13.7°C 49.2°F9.6°C 76% 5.4 mph N8.7 kmh N 8.1 mph13.0 kmh 30.40 in1029.5 mb 0.00 in0.0 mm 0.00 in0.0 mm 0.00 in0.0 mm
07:45 PM 56.7°F13.7°C 49.2°F9.6°C 76% 5.5 mph N8.9 kmh N 7.6 mph12.2 kmh 30.40 in1029.5 mb 0.00 in0.0 mm 0.00 in0.0 mm 0.00 in0.0 mm
07:50 PM 56.7°F13.7°C 49.2°F9.6°C 76% 5.8 mph N9.3 kmh N 7.6 mph12.2 kmh 30.40 in1029.5 mb 0.00 in0.0 mm 0.00 in0.0 mm 0.00 in0.0 mm
07:55 PM 56.7°F13.7°C 49.2°F9.6°C 76% 5.7 mph N9.2 kmh N 7.4 mph11.9 kmh 30.41 in1029.8 mb 0.00 in0.0 mm 0.00 in0.0 mm 0.00 in0.0 mm
08:00 PM 56.7°F13.7°C 49.4°F9.7°C 77% 5.1 mph NNW8.2 kmh NNW 6.3 mph10.1 kmh 30.41 in1029.8 mb 0.00 in0.0 mm 0.00 in0.0 mm 0.00 in0.0 mm
08:05 PM 56.6°F13.7°C 49.5°F9.7°C 77% 5.0 mph NNW8.0 kmh NNW 9.6 mph15.4 kmh 30.41 in1029.8 mb 0.00 in0.0 mm 0.00 in0.0 mm 0.00 in0.0 mm
08:10 PM 56.6°F13.7°C 49.5°F9.7°C 77% 4.7 mph NNW7.6 kmh NNW 7.6 mph12.2 kmh 30.41 in1029.8 mb 0.00 in0.0 mm 0.00 in0.0 mm 0.00 in0.0 mm
08:15 PM 56.6°F13.7°C 49.4°F9.7°C 77% 4.8 mph NNW7.7 kmh NNW 7.6 mph12.2 kmh 30.41 in1029.8 mb 0.00 in0.0 mm 0.00 in0.0 mm 0.00 in0.0 mm
08:20 PM 56.5°F13.6°C 49.4°F9.7°C 77% 5.1 mph NW8.2 kmh NW 7.4 mph11.9 kmh 30.41 in1029.8 mb 0.00 in0.0 mm 0.00 in0.0 mm 0.00 in0.0 mm
08:25 PM 56.5°F13.6°C 49.4°F9.7°C 77% 5.1 mph NW8.2 kmh NW 6.3 mph10.1 kmh 30.41 in1029.8 mb 0.00 in0.0 mm 0.00 in0.0 mm 0.00 in0.0 mm
08:30 PM 56.5°F13.6°C 49.4°F9.7°C 77% 5.1 mph NW8.2 kmh NW 7.6 mph12.2 kmh 30.42 in1030.1 mb 0.00 in0.0 mm 0.00 in0.0 mm 0.00 in0.0 mm
08:35 PM 56.5°F13.6°C 49.4°F9.7°C 77% 4.9 mph NW7.9 kmh NW 5.8 mph9.3 kmh 30.42 in1030.1 mb 0.00 in0.0 mm 0.00 in0.0 mm 0.00 in0.0 mm
08:40 PM 56.3°F13.5°C 49.2°F9.6°C 77% 4.3 mph NW6.9 kmh NW 6.3 mph10.1 kmh 30.42 in1030.1 mb 0.00 in0.0 mm 0.00 in0.0 mm 0.00 in0.0 mm
08:45 PM 56.2°F13.4°C 49.4°F9.7°C 78% 4.3 mph NW6.9 kmh NW 5.8 mph9.3 kmh 30.42 in1030.1 mb 0.00 in0.0 mm 0.00 in0.0 mm 0.00 in0.0 mm
08:50 PM 56.1°F13.4°C 49.4°F9.7°C 78% 4.3 mph NW6.9 kmh NW 6.3 mph10.1 kmh 30.42 in1030.1 mb 0.00 in0.0 mm 0.00 in0.0 mm 0.00 in0.0 mm
08:55 PM 56.0°F13.3°C 49.3°F9.6°C 78% 4.5 mph NW7.2 kmh NW 8.7 mph14.0 kmh 30.42 in1030.1 mb 0.00 in0.0 mm 0.00 in0.0 mm 0.00 in0.0 mm
09:00 PM 55.9°F13.3°C 49.2°F9.6°C 78% 5.1 mph NW8.2 kmh NW 7.4 mph11.9 kmh 30.42 in1030.1 mb 0.00 in0.0 mm 0.00 in0.0 mm 0.00 in0.0 mm
09:05 PM 55.9°F13.3°C 49.1°F9.5°C 78% 5.3 mph NW8.5 kmh NW 7.4 mph11.9 kmh 30.42 in1030.1 mb 0.00 in0.0 mm 0.00 in0.0 mm 0.00 in0.0 mm
09:10 PM 55.8°F13.2°C 48.7°F9.3°C 77% 5.8 mph NW9.3 kmh NW 6.5 mph10.5 kmh 30.42 in1030.1 mb 0.00 in0.0 mm 0.00 in0.0 mm 0.00 in0.0 mm
09:15 PM 55.6°F13.1°C 48.5°F9.2°C 77% 5.7 mph NW9.2 kmh NW 6.9 mph11.1 kmh 30.42 in1030.1 mb 0.00 in0.0 mm 0.00 in0.0 mm 0.00 in0.0 mm
09:20 PM 55.5°F13.1°C 48.4°F9.1°C 77% 5.4 mph NW8.7 kmh NW 6.9 mph11.1 kmh 30.42 in1030.1 mb 0.00 in0.0 mm 0.00 in0.0 mm 0.00 in0.0 mm
09:25 PM 55.2°F12.9°C 48.1°F8.9°C 77% 5.4 mph NW8.7 kmh NW 8.5 mph13.7 kmh 30.42 in1030.1 mb 0.00 in0.0 mm 0.00 in0.0 mm 0.00 in0.0 mm
09:30 PM 55.1°F12.8°C 48.0°F8.9°C 77% 5.4 mph NW8.7 kmh NW 6.9 mph11.1 kmh 30.42 in1030.1 mb 0.00 in0.0 mm 0.00 in0.0 mm 0.00 in0.0 mm
09:35 PM 55.0°F12.8°C 47.9°F8.8°C 77% 5.5 mph NW8.9 kmh NW 8.1 mph13.0 kmh 30.42 in1030.1 mb 0.00 in0.0 mm 0.00 in0.0 mm 0.00 in0.0 mm
09:40 PM 54.9°F12.7°C 47.8°F8.8°C 77% 5.8 mph NW9.3 kmh NW 7.6 mph12.2 kmh 30.42 in1030.1 mb 0.00 in0.0 mm 0.00 in0.0 mm 0.00 in0.0 mm
09:45 PM 54.8°F12.7°C 47.8°F8.8°C 77% 5.8 mph NW9.3 kmh NW 6.5 mph10.5 kmh 30.42 in1030.1 mb 0.00 in0.0 mm 0.00 in0.0 mm 0.00 in0.0 mm
09:50 PM 54.6°F12.6°C 47.8°F8.8°C 78% 5.8 mph WNW9.3 kmh WNW 7.6 mph12.2 kmh 30.42 in1030.1 mb 0.00 in0.0 mm 0.00 in0.0 mm 0.00 in0.0 mm
09:55 PM 54.4°F12.4°C 47.5°F8.6°C 78% 5.7 mph WNW9.2 kmh WNW 7.4 mph11.9 kmh 30.42 in1030.1 mb 0.00 in0.0 mm 0.00 in0.0 mm 0.00 in0.0 mm
10:00 PM 54.2°F12.3°C 47.5°F8.6°C 78% 5.4 mph W8.7 kmh W 8.1 mph13.0 kmh 30.42 in1030.1 mb 0.00 in0.0 mm 0.00 in0.0 mm 0.00 in0.0 mm
10:05 PM 54.0°F12.2°C 47.3°F8.5°C 78% 5.4 mph W8.7 kmh W 8.1 mph13.0 kmh 30.42 in1030.1 mb 0.00 in0.0 mm 0.00 in0.0 mm 0.00 in0.0 mm
10:10 PM 53.9°F12.2°C 47.2°F8.4°C 78% 5.4 mph W8.7 kmh W 7.4 mph11.9 kmh 30.42 in1030.1 mb 0.00 in0.0 mm 0.00 in0.0 mm 0.00 in0.0 mm
10:15 PM 53.8°F12.1°C 47.1°F8.4°C 78% 5.3 mph W8.5 kmh W 6.9 mph11.1 kmh 30.42 in1030.1 mb 0.00 in0.0 mm 0.00 in0.0 mm 0.00 in0.0 mm
10:20 PM 53.5°F11.9°C 46.8°F8.2°C 78% 5.1 mph W8.2 kmh W 8.7 mph14.0 kmh 30.42 in1030.1 mb 0.00 in0.0 mm 0.00 in0.0 mm 0.00 in0.0 mm
10:25 PM 53.3°F11.8°C 46.4°F8.0°C 77% 5.4 mph W8.7 kmh W 8.7 mph14.0 kmh 30.42 in1030.1 mb 0.00 in0.0 mm 0.00 in0.0 mm 0.00 in0.0 mm
10:30 PM 53.2°F11.8°C 46.1°F7.8°C 77% 6.3 mph W10.1 kmh W 9.6 mph15.4 kmh 30.42 in1030.1 mb 0.00 in0.0 mm 0.00 in0.0 mm 0.00 in0.0 mm
10:35 PM 53.1°F11.7°C 46.0°F7.8°C 77% 6.4 mph W10.3 kmh W 8.7 mph14.0 kmh 30.42 in1030.1 mb 0.00 in0.0 mm 0.00 in0.0 mm 0.00 in0.0 mm
10:40 PM 53.0°F11.7°C 45.9°F7.7°C 77% 6.9 mph W11.1 kmh W 9.2 mph14.8 kmh 30.42 in1030.1 mb 0.00 in0.0 mm 0.00 in0.0 mm 0.00 in0.0 mm
10:45 PM 52.9°F11.6°C 45.9°F7.7°C 77% 7.0 mph W11.3 kmh W 9.6 mph15.4 kmh 30.43 in1030.5 mb 0.00 in0.0 mm 0.00 in0.0 mm 0.00 in0.0 mm
10:50 PM 52.8°F11.6°C 45.7°F7.6°C 77% 7.4 mph W11.9 kmh W 10.1 mph16.3 kmh 30.43 in1030.5 mb 0.00 in0.0 mm 0.00 in0.0 mm 0.00 in0.0 mm
10:55 PM 52.6°F11.4°C 45.2°F7.3°C 76% 7.4 mph W11.9 kmh W 11.4 mph18.3 kmh 30.43 in1030.5 mb 0.00 in0.0 mm 0.00 in0.0 mm 0.00 in0.0 mm
11:00 PM 52.5°F11.4°C 45.1°F7.3°C 76% 7.6 mph WSW12.2 kmh WSW 10.7 mph17.2 kmh 30.43 in1030.5 mb 0.00 in0.0 mm 0.00 in0.0 mm 0.00 in0.0 mm
11:05 PM 52.3°F11.3°C 45.0°F7.2°C 76% 7.7 mph WSW12.4 kmh WSW 10.1 mph16.3 kmh 30.43 in1030.5 mb 0.00 in0.0 mm 0.00 in0.0 mm 0.00 in0.0 mm
11:10 PM 52.2°F11.2°C 44.8°F7.1°C 76% 8.1 mph W13.0 kmh W 10.1 mph16.3 kmh 30.43 in1030.5 mb 0.00 in0.0 mm 0.00 in0.0 mm 0.00 in0.0 mm
11:15 PM 52.1°F11.2°C 44.8°F7.1°C 76% 8.1 mph W13.0 kmh W 10.1 mph16.3 kmh 30.43 in1030.5 mb 0.00 in0.0 mm 0.00 in0.0 mm 0.00 in0.0 mm
11:20 PM 52.0°F11.1°C 44.7°F7.1°C 76% 8.1 mph W13.0 kmh W 10.1 mph16.3 kmh 30.43 in1030.5 mb 0.00 in0.0 mm 0.00 in0.0 mm 0.00 in0.0 mm
11:25 PM 52.0°F11.1°C 44.7°F7.1°C 76% 7.9 mph W12.7 kmh W 9.2 mph14.8 kmh 30.43 in1030.5 mb 0.00 in0.0 mm 0.00 in0.0 mm 0.00 in0.0 mm
11:30 PM 51.8°F11.0°C 44.5°F6.9°C 76% 7.4 mph W11.9 kmh W 10.3 mph16.6 kmh 30.43 in1030.5 mb 0.00 in0.0 mm 0.00 in0.0 mm 0.00 in0.0 mm
11:35 PM 51.7°F10.9°C 44.3°F6.8°C 76% 7.5 mph W12.1 kmh W 10.3 mph16.6 kmh 30.43 in1030.5 mb 0.00 in0.0 mm 0.00 in0.0 mm 0.00 in0.0 mm
11:40 PM 51.6°F10.9°C 44.0°F6.7°C 75% 8.1 mph W13.0 kmh W 10.7 mph17.2 kmh 30.43 in1030.5 mb 0.00 in0.0 mm 0.00 in0.0 mm 0.00 in0.0 mm
11:45 PM 51.6°F10.9°C 44.0°F6.7°C 75% 7.9 mph W12.7 kmh W 9.2 mph14.8 kmh 30.43 in1030.5 mb 0.00 in0.0 mm 0.00 in0.0 mm 0.00 in0.0 mm
11:50 PM 51.6°F10.9°C 44.0°F6.7°C 75% 7.6 mph W12.2 kmh W 9.2 mph14.8 kmh 30.43 in1030.5 mb 0.00 in0.0 mm 0.00 in0.0 mm 0.00 in0.0 mm
11:55 PM 51.6°F10.9°C 44.0°F6.7°C 75% 7.6 mph W12.2 kmh W 10.1 mph16.3 kmh 30.43 in1030.5 mb 0.00 in0.0 mm 0.00 in0.0 mm 0.00 in0.0 mm